Golconda, Nevada
Current Conditions -  °F | °C
As of 12:56 AM on Monday 22 Dec 2014 (Local Time) from KWMC Reporting Station
Overcast Overcast  
Wind Chill: 50°   Ceiling: 6500
Heat Index: 50°   Visibility: 10mi
Dew Point: 39°   Wind: 8mph
Humidity: 66%   Direction: 260°W
Pressure: 30.18"   Gusts: NA
Location:  40.95°N, 117.49°W
Report Text: KWMC 220856Z AUTO 26007KT 10SM FEW043 OVC065 10/04 A3018 RMK AO2 SLP203 T01000039 50001
Loading
Personal Weather Stations






























Interactive Weather Map New forecast layout! Learn more

10-Day Weather Forecast

Advertisements
Track Severe Weather on mobile